createdAt,value
2023-01-11T00:00:45.744Z,1.23
2023-01-11T00:03:12.653Z,1.42
2023-01-11T00:05:44.281Z,1.52
2023-01-11T00:08:11.928Z,1.30
2023-01-11T00:10:39.903Z,1.17
2023-01-11T00:13:07.232Z,1.38
2023-01-11T00:15:36.546Z,1.00
2023-01-11T00:18:03.666Z,1.10
2023-01-11T00:20:30.417Z,1.70
2023-01-11T00:22:57.281Z,2.13
2023-01-11T00:25:24.249Z,1.33
2023-01-11T00:27:51.072Z,1.40
2023-01-11T00:30:18.656Z,0.95
2023-01-11T00:32:46.009Z,1.35
2023-01-11T00:35:13.035Z,1.27
2023-01-11T00:37:40.476Z,1.30
2023-01-11T00:40:08.341Z,1.27
2023-01-11T00:42:53.455Z,1.02
2023-01-11T00:45:38.473Z,1.50
2023-01-11T00:48:07.008Z,0.73
2023-01-11T00:50:37.639Z,1.50
2023-01-11T00:53:05.506Z,1.02
2023-01-11T00:55:32.761Z,1.10
2023-01-11T00:58:00.400Z,0.85
2023-01-11T01:00:28.493Z,1.10
2023-01-11T01:02:55.346Z,0.82
2023-01-11T01:05:22.258Z,1.08
2023-01-11T01:07:49.315Z,1.00
2023-01-11T01:10:18.294Z,0.98
2023-01-11T01:13:04.728Z,1.20
2023-01-11T01:15:32.570Z,0.98
2023-01-11T01:17:59.468Z,0.95
2023-01-11T01:20:26.841Z,1.15
2023-01-11T01:22:53.640Z,0.80
2023-01-11T01:25:20.550Z,1.23
2023-01-11T01:27:47.357Z,0.70
2023-01-11T01:30:14.467Z,0.80
2023-01-11T01:32:41.260Z,0.73
2023-01-11T01:35:08.844Z,1.00
2023-01-11T01:37:35.621Z,0.88
2023-01-11T01:40:02.609Z,0.88
2023-01-11T01:42:29.377Z,0.90
2023-01-11T01:45:18.291Z,1.55
2023-01-11T01:47:51.868Z,0.73
2023-01-11T01:50:28.333Z,1.55
2023-01-11T01:53:06.212Z,1.08
2023-01-11T01:55:39.390Z,0.70
2023-01-11T01:58:13.787Z,0.98
2023-01-11T02:00:42.810Z,0.82
2023-01-11T02:03:13.796Z,0.95
2023-01-11T02:05:40.572Z,0.90
2023-01-11T02:08:17.909Z,0.70
2023-01-11T02:10:44.727Z,0.70
2023-01-11T02:13:14.296Z,0.60
2023-01-11T02:15:41.546Z,1.17
2023-01-11T02:18:13.808Z,0.70
2023-01-11T02:20:43.095Z,0.90
2023-01-11T02:23:25.642Z,1.42
2023-01-11T02:26:15.106Z,0.75
2023-01-11T02:28:49.641Z,1.20
2023-01-11T02:31:35.798Z,0.95
2023-01-11T02:34:27.992Z,0.65
2023-01-11T02:37:29.296Z,0.98
2023-01-11T02:40:08.883Z,0.90
2023-01-11T02:43:14.635Z,0.50
2023-01-11T02:46:24.258Z,0.70
2023-01-11T02:49:36.740Z,0.95
2023-01-11T02:52:12.933Z,0.90
2023-01-11T02:54:43.333Z,0.88
2023-01-11T02:57:12.433Z,0.77
2023-01-11T02:59:40.683Z,0.73
2023-01-11T03:02:07.463Z,1.00
2023-01-11T03:04:39.668Z,0.70
2023-01-11T03:07:33.714Z,0.68
2023-01-11T03:10:25.214Z,0.43
2023-01-11T03:13:16.267Z,0.80
2023-01-11T03:16:04.393Z,0.50
2023-01-11T03:18:53.278Z,0.82
2023-01-11T03:21:48.816Z,0.80
2023-01-11T03:24:45.834Z,0.52
2023-01-11T03:27:54.999Z,0.80
2023-01-11T03:30:55.589Z,0.80
2023-01-11T03:33:52.660Z,0.47
2023-01-11T03:36:51.395Z,1.13
2023-01-11T03:39:28.285Z,0.43
2023-01-11T03:42:00.130Z,0.60
2023-01-11T03:44:34.051Z,0.90
2023-01-11T03:47:10.304Z,0.57
2023-01-11T03:49:52.610Z,0.52
2023-01-11T03:52:29.070Z,0.43
2023-01-11T03:54:58.916Z,0.70
2023-01-11T03:57:33.819Z,0.77
2023-01-11T04:00:00.989Z,0.50
2023-01-11T04:02:34.763Z,0.65
2023-01-11T04:05:02.725Z,0.47
2023-01-11T04:07:29.619Z,0.60
2023-01-11T04:09:58.430Z,0.70
2023-01-11T04:12:25.809Z,0.70
2023-01-11T04:14:52.774Z,0.70
2023-01-11T04:17:19.725Z,0.50
2023-01-11T04:19:47.170Z,0.75
2023-01-11T04:22:14.000Z,0.40
2023-01-11T04:24:40.775Z,0.43
2023-01-11T04:27:07.559Z,0.55
2023-01-11T04:29:34.334Z,0.57
2023-01-11T04:32:01.277Z,0.40
2023-01-11T04:34:28.063Z,0.70
2023-01-11T04:36:54.854Z,0.70
2023-01-11T04:39:21.644Z,0.52
2023-01-11T04:42:06.861Z,0.70
2023-01-11T04:44:33.634Z,0.68
2023-01-11T04:47:00.416Z,0.77
2023-01-11T04:49:27.180Z,0.77
2023-01-11T04:51:53.970Z,0.80
2023-01-11T04:54:20.739Z,0.90
2023-01-11T04:56:47.523Z,0.73
2023-01-11T04:59:14.486Z,0.80
2023-01-11T05:01:41.272Z,0.77
2023-01-11T05:04:08.068Z,1.10
2023-01-11T05:06:34.893Z,0.73
2023-01-11T05:09:01.728Z,0.70
2023-01-11T05:11:28.517Z,0.68
2023-01-11T05:13:55.280Z,0.70
2023-01-11T05:16:24.180Z,0.93
2023-01-11T05:18:57.360Z,0.82
2023-01-11T05:21:36.925Z,0.80
2023-01-11T05:24:07.057Z,0.68
2023-01-11T05:26:36.972Z,0.68
2023-01-11T05:29:07.999Z,0.75
2023-01-11T05:31:37.191Z,0.52
2023-01-11T05:34:04.242Z,0.90
2023-01-11T05:36:31.074Z,0.90
2023-01-11T05:38:57.853Z,0.70
2023-01-11T05:41:27.248Z,0.80
2023-01-11T05:44:14.321Z,0.80
2023-01-11T05:46:43.227Z,1.20
2023-01-11T05:49:12.200Z,0.75
2023-01-11T05:51:40.075Z,1.20
2023-01-11T05:54:13.241Z,0.50
2023-01-11T05:56:40.513Z,0.98
2023-01-11T05:59:07.261Z,0.85
2023-01-11T06:01:34.567Z,0.68
2023-01-11T06:04:01.675Z,0.75
2023-01-11T06:06:28.655Z,0.93
2023-01-11T06:08:55.490Z,1.27
2023-01-11T06:11:22.266Z,0.60
2023-01-11T06:13:49.072Z,0.90
2023-01-11T06:16:19.314Z,1.13
2023-01-11T06:18:50.248Z,0.80
2023-01-11T06:21:18.260Z,0.80
2023-01-11T06:23:50.469Z,1.25
2023-01-11T06:26:20.944Z,1.00
2023-01-11T06:28:48.341Z,1.05
2023-01-11T06:31:17.337Z,0.82
2023-01-11T06:33:45.055Z,0.80
2023-01-11T06:36:13.420Z,0.85
2023-01-11T06:38:40.789Z,1.10
2023-01-11T06:41:08.680Z,1.27
2023-01-11T06:43:37.339Z,0.90
2023-01-11T06:46:05.140Z,0.85
2023-01-11T06:48:31.967Z,0.82
2023-01-11T06:50:59.445Z,0.80
2023-01-11T06:53:29.035Z,0.98
2023-01-11T06:55:57.944Z,1.20
2023-01-11T06:58:26.036Z,0.90
2023-01-11T07:00:55.552Z,0.98
2023-01-11T07:03:24.395Z,0.80
2023-01-11T07:05:52.940Z,0.90
2023-01-11T07:08:20.578Z,1.08
2023-01-11T07:10:48.029Z,1.02
2023-01-11T07:13:17.087Z,1.00
2023-01-11T07:15:50.083Z,0.98
2023-01-11T07:18:18.588Z,0.70
2023-01-11T07:20:45.341Z,0.80
2023-01-11T07:23:12.160Z,0.73
2023-01-11T07:25:39.219Z,0.90
2023-01-11T07:28:08.348Z,0.75
2023-01-11T07:30:56.065Z,0.52
2023-01-11T07:33:24.125Z,0.52
2023-01-11T07:35:50.922Z,0.52
2023-01-11T07:38:17.728Z,0.90
2023-01-11T07:40:44.679Z,0.47
2023-01-11T07:43:18.169Z,0.70
2023-01-11T07:45:51.146Z,0.60
2023-01-11T07:48:24.485Z,0.63
2023-01-11T07:50:54.109Z,0.70
2023-01-11T07:53:21.076Z,0.60
2023-01-11T07:55:47.890Z,0.45
2023-01-11T07:58:15.394Z,1.00
2023-01-11T08:00:42.197Z,0.70
2023-01-11T08:03:09.772Z,0.70
2023-01-11T08:05:36.693Z,0.68
2023-01-11T08:08:04.482Z,0.90
2023-01-11T08:10:31.550Z,0.47
2023-01-11T08:13:16.995Z,0.80
2023-01-11T08:15:44.024Z,0.73
2023-01-11T08:18:12.457Z,0.60
2023-01-11T08:20:40.558Z,0.55
2023-01-11T08:23:09.898Z,0.70
2023-01-11T08:25:37.399Z,0.60
2023-01-11T08:28:06.423Z,0.77
2023-01-11T08:30:33.718Z,0.80
2023-01-11T08:33:02.071Z,0.77
2023-01-11T08:35:30.558Z,1.05
2023-01-11T08:37:57.419Z,0.93
2023-01-11T08:40:25.504Z,0.50
2023-01-11T08:42:56.917Z,0.85
2023-01-11T08:45:24.578Z,0.70
2023-01-11T08:47:51.953Z,0.90
2023-01-11T08:50:19.672Z,0.75
2023-01-11T08:52:47.570Z,0.65
2023-01-11T08:55:14.363Z,0.70
2023-01-11T08:57:41.159Z,0.98
2023-01-11T09:00:09.027Z,0.60
2023-01-11T09:02:35.986Z,0.80
2023-01-11T09:05:02.843Z,0.68
2023-01-11T09:07:29.672Z,0.70
2023-01-11T09:09:56.436Z,0.57
2023-01-11T09:12:23.295Z,0.65
2023-01-11T09:14:50.169Z,0.68
2023-01-11T09:17:16.960Z,0.47
2023-01-11T09:19:43.703Z,0.82
2023-01-11T09:22:10.498Z,0.50
2023-01-11T09:24:37.293Z,1.27
2023-01-11T09:27:04.904Z,0.57
2023-01-11T09:29:32.446Z,0.70
2023-01-11T09:31:59.422Z,0.52
2023-01-11T09:34:27.330Z,0.60
2023-01-11T09:36:56.086Z,0.35
2023-01-11T09:39:26.212Z,0.50
2023-01-11T09:42:26.991Z,0.30
2023-01-11T09:44:59.589Z,0.30
2023-01-11T09:48:04.851Z,0.30
2023-01-11T09:50:41.108Z,0.30
2023-01-11T09:53:28.047Z,0.28
2023-01-11T09:55:58.027Z,0.28
2023-01-11T09:58:49.692Z,0.20
2023-01-11T10:01:31.465Z,0.20
2023-01-11T10:04:23.937Z,0.38
2023-01-11T10:07:22.968Z,0.10
2023-01-11T10:18:25.374Z,0.20
2023-01-11T10:20:15.184Z,0.35
2023-01-11T10:22:48.828Z,0.13
2023-01-11T10:25:34.935Z,0.20
2023-01-11T10:28:14.987Z,0.20
2023-01-11T10:31:01.253Z,0.10
2023-01-11T10:34:06.144Z,0.10
2023-01-11T10:37:07.940Z,0.20
2023-01-11T10:40:34.933Z,0.20
2023-01-11T10:43:04.749Z,0.20
2023-01-11T10:45:50.673Z,0.10
2023-01-11T10:48:33.886Z,0.10
2023-01-11T10:51:15.034Z,0.20
2023-01-11T10:54:02.989Z,0.30
2023-01-11T10:57:14.143Z,0.30
2023-01-11T11:00:18.686Z,0.30
2023-01-11T11:03:10.131Z,0.20
2023-01-11T11:05:55.022Z,0.10
2023-01-11T11:08:46.610Z,0.20
2023-01-11T11:11:21.803Z,0.10
2023-01-11T11:14:18.476Z,0.30
2023-01-11T11:17:18.187Z,0.20
2023-01-11T11:19:45.020Z,0.10
2023-01-11T11:22:12.890Z,0.10
2023-01-11T11:24:52.196Z,0.20
2023-01-11T11:27:45.961Z,0.20
2023-01-11T11:30:15.514Z,0.25
2023-01-11T11:32:55.792Z,0.30
2023-01-11T11:35:40.740Z,0.10
2023-01-11T11:38:20.411Z,0.17
2023-01-11T11:41:05.203Z,0.22
2023-01-11T11:43:34.690Z,0.20
2023-01-11T11:46:04.762Z,0.40
2023-01-11T11:48:34.121Z,0.30
2023-01-11T11:51:07.222Z,0.20
2023-01-11T11:53:46.018Z,0.20
2023-01-11T11:56:31.405Z,0.28
2023-01-11T11:58:59.450Z,0.30
2023-01-11T12:01:36.223Z,0.45
2023-01-11T12:04:29.832Z,0.30
2023-01-11T12:07:30.403Z,0.40
2023-01-11T12:09:58.982Z,0.30
2023-01-11T12:12:28.576Z,0.35
2023-01-11T12:15:19.668Z,0.30
2023-01-11T12:17:47.519Z,0.32
2023-01-11T12:20:23.380Z,0.40
2023-01-11T12:22:51.345Z,0.40
2023-01-11T12:25:23.016Z,0.35
2023-01-11T12:28:01.961Z,0.50
2023-01-11T12:31:05.035Z,0.60
2023-01-11T12:34:17.362Z,0.40
2023-01-11T12:37:01.953Z,0.40
2023-01-11T12:39:52.004Z,0.47
2023-01-11T12:43:09.038Z,0.50
2023-01-11T12:46:12.234Z,0.85
2023-01-11T12:49:03.192Z,0.73
2023-01-11T12:52:14.788Z,0.80
2023-01-11T12:55:15.081Z,0.90
2023-01-11T12:58:08.207Z,1.00
2023-01-11T13:01:09.618Z,2.65
2023-01-11T13:04:35.191Z,4.28
2023-01-11T13:07:36.241Z,2.15
2023-01-11T13:10:29.717Z,2.30
2023-01-11T13:13:15.209Z,1.50
2023-01-11T13:16:07.362Z,1.42
2023-01-11T13:18:51.295Z,1.42
2023-01-11T13:21:43.042Z,1.40
2023-01-11T13:24:18.582Z,1.77
2023-01-11T13:26:50.475Z,1.98
2023-01-11T13:29:27.582Z,1.98
2023-01-11T13:31:58.855Z,2.15
2023-01-11T13:34:38.665Z,1.95
2023-01-11T13:37:20.116Z,2.00
2023-01-11T13:40:32.615Z,2.20
2023-01-11T13:43:07.724Z,2.67
2023-01-11T13:45:44.441Z,2.97
2023-01-11T13:48:27.427Z,2.78
2023-01-11T13:51:44.282Z,2.47
2023-01-11T13:54:20.714Z,2.58
2023-01-11T13:56:58.356Z,3.58
2023-01-11T13:59:35.454Z,2.50
2023-01-11T14:02:40.633Z,3.60
2023-01-11T14:05:21.239Z,2.30
2023-01-11T14:08:32.380Z,2.92
2023-01-11T14:11:19.359Z,2.78
2023-01-11T14:14:37.764Z,3.00
2023-01-11T14:17:22.623Z,2.83
2023-01-11T14:19:57.420Z,2.80
2023-01-11T14:23:08.582Z,2.95
2023-01-11T14:26:02.088Z,3.90
2023-01-11T14:29:03.435Z,3.40
2023-01-11T14:31:30.148Z,3.60
2023-01-11T14:34:10.904Z,3.42
2023-01-11T14:37:10.925Z,2.38
2023-01-11T14:40:22.824Z,3.03
2023-01-11T14:43:42.597Z,2.10
2023-01-11T14:46:31.535Z,2.08
2023-01-11T14:49:55.831Z,1.65
2023-01-11T14:52:39.042Z,1.85
2023-01-11T14:55:30.312Z,2.00
2023-01-11T14:57:56.965Z,1.70
2023-01-11T15:00:23.634Z,1.70
2023-01-11T15:03:20.832Z,1.58
2023-01-11T15:06:14.531Z,2.10
2023-01-11T15:08:54.786Z,2.20
2023-01-11T15:11:30.947Z,2.10
2023-01-11T15:14:28.472Z,2.40
2023-01-11T15:17:19.319Z,2.47
2023-01-11T15:19:47.377Z,2.20
2023-01-11T15:22:29.541Z,2.20
2023-01-11T15:25:03.109Z,1.90
2023-01-11T15:27:36.823Z,2.13
2023-01-11T15:30:09.368Z,2.42
2023-01-11T15:32:36.795Z,2.20
2023-01-11T15:35:36.267Z,2.15
2023-01-11T15:38:52.718Z,2.63
2023-01-11T15:42:12.057Z,1.95
2023-01-11T15:45:17.103Z,2.15
2023-01-11T15:48:38.246Z,2.65
2023-01-11T15:51:55.628Z,2.45
2023-01-11T15:55:29.555Z,2.00
2023-01-11T15:58:30.232Z,2.30
2023-01-11T16:01:30.226Z,2.67
2023-01-11T16:04:15.155Z,2.92
2023-01-11T16:06:53.400Z,2.67
2023-01-11T16:09:54.063Z,2.50
2023-01-11T16:12:43.568Z,3.47
2023-01-11T16:15:18.954Z,2.75
2023-01-11T16:17:48.159Z,2.42
2023-01-11T16:20:28.799Z,2.95
2023-01-11T16:23:02.997Z,2.30
2023-01-11T16:25:42.460Z,2.72
2023-01-11T16:28:17.045Z,3.33
2023-01-11T16:30:46.438Z,2.88
2023-01-11T16:33:14.709Z,2.72
2023-01-11T16:35:41.521Z,3.85
2023-01-11T16:38:18.209Z,2.58
2023-01-11T16:40:52.844Z,2.80
2023-01-11T16:43:27.078Z,2.25
2023-01-11T16:48:29.757Z,2.17
2023-01-11T16:51:04.113Z,2.47
2023-01-11T16:53:33.532Z,2.42
2023-01-11T16:56:21.922Z,3.08
2023-01-11T16:59:15.207Z,2.95
2023-01-11T17:01:55.210Z,2.30
2023-01-11T17:04:49.571Z,2.60
2023-01-11T17:07:28.719Z,2.63
2023-01-11T17:10:27.826Z,2.70
2023-01-11T17:13:52.675Z,2.38
2023-01-11T17:16:23.832Z,2.80
2023-01-11T17:18:50.728Z,2.83
2023-01-11T17:21:26.731Z,2.80
2023-01-11T17:23:59.502Z,2.38
2023-01-11T17:26:38.114Z,2.67
2023-01-11T17:29:06.010Z,3.17
2023-01-11T17:31:36.116Z,3.25
2023-01-11T17:34:15.518Z,2.63
2023-01-11T17:36:43.501Z,2.70
2023-01-11T17:39:29.327Z,2.60
2023-01-11T17:42:16.907Z,3.15
2023-01-11T17:45:04.163Z,3.13
2023-01-11T17:47:32.467Z,3.05
2023-01-11T17:50:02.198Z,2.50
2023-01-11T17:52:53.851Z,2.75
2023-01-11T17:55:24.330Z,2.67
2023-01-11T17:58:20.692Z,3.10
2023-01-11T18:01:13.741Z,2.55
2023-01-11T18:03:58.320Z,2.75
2023-01-11T18:09:22.406Z,2.97
2023-01-11T18:11:50.673Z,2.38
2023-01-11T18:14:30.075Z,3.08
2023-01-11T18:17:03.982Z,3.67
2023-01-11T18:19:40.832Z,2.63
2023-01-11T18:22:29.939Z,3.13
2023-01-11T18:25:04.474Z,3.13
2023-01-11T18:27:35.287Z,3.10
2023-01-11T18:30:06.519Z,3.08
2023-01-11T18:32:40.205Z,3.28
2023-01-11T18:35:18.427Z,3.75
2023-01-11T18:37:45.512Z,4.15
2023-01-11T18:40:14.799Z,3.80
2023-01-11T18:42:43.360Z,3.30
2023-01-11T18:45:11.318Z,4.18
2023-01-11T18:47:38.166Z,3.95
2023-01-11T18:50:05.766Z,3.75
2023-01-11T18:52:32.573Z,4.20
2023-01-11T18:54:59.387Z,3.88
2023-01-11T18:57:26.142Z,4.05
2023-01-11T18:59:53.307Z,4.18
2023-01-11T19:02:24.974Z,4.60
2023-01-11T19:04:54.487Z,4.22
2023-01-11T19:07:22.923Z,4.25
2023-01-11T19:09:50.476Z,3.83
2023-01-11T19:12:18.247Z,4.28
2023-01-11T19:14:45.031Z,4.25
2023-01-11T19:17:13.419Z,4.25
2023-01-11T19:19:40.513Z,4.50
2023-01-11T19:22:07.378Z,4.90
2023-01-11T19:24:34.276Z,5.18
2023-01-11T19:27:01.076Z,5.55
2023-01-11T19:29:28.249Z,4.80
2023-01-11T19:31:57.853Z,4.70
2023-01-11T19:34:24.675Z,4.18
2023-01-11T19:36:52.258Z,4.22
2023-01-11T19:39:19.555Z,4.10
2023-01-11T19:41:56.566Z,3.40
2023-01-11T19:44:30.464Z,3.20
2023-01-11T19:47:10.347Z,3.42
2023-01-11T19:49:38.779Z,4.35
2023-01-11T19:52:12.037Z,3.50
2023-01-11T19:54:43.215Z,4.03
2023-01-11T19:57:12.196Z,3.10
2023-01-11T19:59:38.961Z,3.00
2023-01-11T20:02:05.976Z,3.50
2023-01-11T20:04:33.292Z,2.90
2023-01-11T20:07:00.042Z,3.17
2023-01-11T20:09:26.840Z,4.35
2023-01-11T20:11:55.337Z,3.05
2023-01-11T20:14:22.110Z,3.13
2023-01-11T20:16:48.849Z,4.15
2023-01-11T20:19:15.711Z,3.30
2023-01-11T20:21:42.632Z,3.15
2023-01-11T20:24:13.212Z,2.78
2023-01-11T20:26:40.911Z,2.88
2023-01-11T20:29:08.223Z,2.90
2023-01-11T20:31:35.687Z,2.90
2023-01-11T20:34:13.293Z,3.03
2023-01-11T20:36:40.132Z,2.50
2023-01-11T20:39:07.169Z,2.70
2023-01-11T20:41:49.618Z,2.83
2023-01-11T20:44:29.338Z,2.97
2023-01-11T20:46:56.793Z,2.50
2023-01-11T20:49:31.238Z,2.55
2023-01-11T20:51:58.045Z,2.97
2023-01-11T20:54:24.821Z,3.03
2023-01-11T20:56:51.722Z,2.38
2023-01-11T20:59:20.066Z,3.47
2023-01-11T21:01:48.714Z,2.88
2023-01-11T21:04:17.130Z,2.13
2023-01-11T21:06:46.347Z,2.88
2023-01-11T21:09:16.424Z,2.40
2023-01-11T21:11:44.114Z,2.08
2023-01-11T21:14:13.479Z,2.50
2023-01-11T21:16:42.633Z,1.90
2023-01-11T21:19:13.184Z,2.53
2023-01-11T21:21:40.669Z,2.47
2023-01-11T21:24:08.163Z,2.92
2023-01-11T21:26:35.012Z,3.15
2023-01-11T21:29:04.852Z,3.00
2023-01-11T21:31:35.201Z,3.05
2023-01-11T21:34:02.738Z,2.70
2023-01-11T21:36:31.603Z,2.45
2023-01-11T21:38:59.790Z,2.05
2023-01-11T21:41:49.069Z,2.50
2023-01-11T21:44:17.451Z,1.90
2023-01-11T21:46:44.439Z,1.92
2023-01-11T21:49:13.095Z,2.08
2023-01-11T21:51:41.148Z,2.33
2023-01-11T21:54:15.012Z,2.35
2023-01-11T21:56:41.925Z,2.30
2023-01-11T21:59:08.905Z,2.50
2023-01-11T22:01:36.108Z,1.77
2023-01-11T22:04:13.280Z,2.15
2023-01-11T22:06:43.349Z,2.45
2023-01-11T22:09:11.761Z,2.38
2023-01-11T22:11:39.168Z,2.30
2023-01-11T22:14:08.381Z,2.05
2023-01-11T22:16:36.044Z,2.72
2023-01-11T22:19:06.083Z,2.53
2023-01-11T22:21:32.941Z,1.92
2023-01-11T22:24:00.106Z,2.13
2023-01-11T22:26:29.891Z,2.28
2023-01-11T22:29:11.788Z,2.38
2023-01-11T22:31:54.894Z,1.98
2023-01-11T22:34:23.169Z,2.10
2023-01-11T22:36:50.084Z,2.28
2023-01-11T22:39:19.474Z,2.47
2023-01-11T22:41:48.360Z,2.42
2023-01-11T22:44:15.579Z,2.08
2023-01-11T22:46:43.780Z,2.47
2023-01-11T22:49:10.926Z,1.85
2023-01-11T22:51:38.222Z,1.58
2023-01-11T22:54:05.066Z,1.90
2023-01-11T22:56:31.979Z,2.08
2023-01-11T22:58:59.061Z,2.38
2023-01-11T23:01:29.395Z,2.33
2023-01-11T23:03:57.756Z,2.78
2023-01-11T23:06:30.417Z,2.13
2023-01-11T23:08:58.687Z,2.95
2023-01-11T23:11:48.063Z,2.42
2023-01-11T23:14:19.786Z,1.77
2023-01-11T23:16:48.967Z,1.70
2023-01-11T23:19:19.556Z,1.88
2023-01-11T23:21:47.407Z,2.15
2023-01-11T23:24:16.452Z,2.70
2023-01-11T23:26:44.877Z,3.50
2023-01-11T23:29:12.241Z,2.22
2023-01-11T23:31:39.379Z,1.95
2023-01-11T23:34:08.954Z,2.10
2023-01-11T23:36:41.656Z,1.60
2023-01-11T23:39:16.166Z,1.67
2023-01-11T23:42:01.202Z,2.08
2023-01-11T23:44:28.098Z,2.55
2023-01-11T23:47:13.455Z,2.03
2023-01-11T23:49:40.280Z,2.17
2023-01-11T23:52:07.129Z,1.85
2023-01-11T23:54:34.369Z,1.65
2023-01-11T23:57:02.981Z,2.22
2023-01-11T23:59:30.360Z,1.40
